sensor_id;sensor_type;location;lat;lon;timestamp;pressure;altitude;pressure_sealevel;temperature;humidity
65329;BME280;51941;52.210;5.158;2023-11-21T00:01:57;101062.59;;;6.79;100.00
65329;BME280;51941;52.210;5.158;2023-11-21T00:04:24;101066.41;;;6.76;100.00
65329;BME280;51941;52.210;5.158;2023-11-21T00:06:54;101066.41;;;6.70;100.00
65329;BME280;51941;52.210;5.158;2023-11-21T00:09:22;101068.66;;;6.73;100.00
65329;BME280;51941;52.210;5.158;2023-11-21T00:11:49;101073.28;;;6.64;100.00
65329;BME280;51941;52.210;5.158;2023-11-21T00:14:16;101085.41;;;6.65;100.00
65329;BME280;51941;52.210;5.158;2023-11-21T00:16:43;101085.00;;;6.62;100.00
65329;BME280;51941;52.210;5.158;2023-11-21T00:19:09;101081.75;;;6.60;100.00
65329;BME280;51941;52.210;5.158;2023-11-21T00:21:36;101078.50;;;6.57;100.00
65329;BME280;51941;52.210;5.158;2023-11-21T00:24:03;101084.59;;;6.58;100.00
65329;BME280;51941;52.210;5.158;2023-11-21T00:26:31;101093.69;;;6.55;100.00
65329;BME280;51941;52.210;5.158;2023-11-21T00:29:02;101084.38;;;6.53;100.00
65329;BME280;51941;52.210;5.158;2023-11-21T00:31:33;101091.03;;;6.49;100.00
65329;BME280;51941;52.210;5.158;2023-11-21T00:34:02;101087.38;;;6.50;100.00
65329;BME280;51941;52.210;5.158;2023-11-21T00:36:29;101090.22;;;6.48;100.00
65329;BME280;51941;52.210;5.158;2023-11-21T00:38:55;101082.09;;;6.37;100.00
65329;BME280;51941;52.210;5.158;2023-11-21T00:41:22;101092.63;;;6.43;100.00
65329;BME280;51941;52.210;5.158;2023-11-21T00:43:50;101087.38;;;6.43;100.00
65329;BME280;51941;52.210;5.158;2023-11-21T00:46:17;101091.00;;;6.42;100.00
65329;BME280;51941;52.210;5.158;2023-11-21T00:48:43;101090.00;;;6.43;100.00
65329;BME280;51941;52.210;5.158;2023-11-21T00:51:10;101095.69;;;6.47;100.00
65329;BME280;51941;52.210;5.158;2023-11-21T00:53:37;101095.06;;;6.45;100.00
65329;BME280;51941;52.210;5.158;2023-11-21T00:56:05;101096.28;;;6.49;100.00
65329;BME280;51941;52.210;5.158;2023-11-21T00:58:33;101096.72;;;6.52;100.00
65329;BME280;51941;52.210;5.158;2023-11-21T01:01:02;101103.19;;;6.56;100.00
65329;BME280;51941;52.210;5.158;2023-11-21T01:03:29;101106.44;;;6.59;100.00
65329;BME280;51941;52.210;5.158;2023-11-21T01:05:56;101109.31;;;6.64;100.00
65329;BME280;51941;52.210;5.158;2023-11-21T01:08:23;101109.88;;;6.66;100.00
65329;BME280;51941;52.210;5.158;2023-11-21T01:10:50;101112.56;;;6.72;100.00
65329;BME280;51941;52.210;5.158;2023-11-21T01:13:17;101105.69;;;6.78;100.00
65329;BME280;51941;52.210;5.158;2023-11-21T01:15:44;101116.81;;;6.80;100.00
65329;BME280;51941;52.210;5.158;2023-11-21T01:18:12;101111.97;;;6.83;100.00
65329;BME280;51941;52.210;5.158;2023-11-21T01:20:39;101108.94;;;6.86;100.00
65329;BME280;51941;52.210;5.158;2023-11-21T01:23:05;101112.38;;;6.87;100.00
65329;BME280;51941;52.210;5.158;2023-11-21T01:25:32;101110.19;;;6.90;100.00
65329;BME280;51941;52.210;5.158;2023-11-21T01:27:59;101110.56;;;6.94;100.00
65329;BME280;51941;52.210;5.158;2023-11-21T01:30:25;101118.69;;;6.99;100.00
65329;BME280;51941;52.210;5.158;2023-11-21T01:32:52;101120.09;;;7.02;100.00
65329;BME280;51941;52.210;5.158;2023-11-21T01:35:20;101128.41;;;7.05;100.00
65329;BME280;51941;52.210;5.158;2023-11-21T01:37:47;101130.44;;;7.10;100.00
65329;BME280;51941;52.210;5.158;2023-11-21T01:40:15;101131.06;;;7.12;100.00
65329;BME280;51941;52.210;5.158;2023-11-21T01:42:42;101139.38;;;7.15;100.00
65329;BME280;51941;52.210;5.158;2023-11-21T01:45:10;101136.31;;;7.18;100.00
65329;BME280;51941;52.210;5.158;2023-11-21T01:47:38;101142.41;;;7.19;100.00
65329;BME280;51941;52.210;5.158;2023-11-21T01:50:08;101144.63;;;7.28;100.00
65329;BME280;51941;52.210;5.158;2023-11-21T01:52:39;101152.78;;;7.34;100.00
65329;BME280;51941;52.210;5.158;2023-11-21T01:55:08;101155.00;;;7.37;100.00
65329;BME280;51941;52.210;5.158;2023-11-21T01:57:35;101156.25;;;7.41;100.00
65329;BME280;51941;52.210;5.158;2023-11-21T02:00:04;101156.66;;;7.44;100.00
65329;BME280;51941;52.210;5.158;2023-11-21T02:02:42;101163.94;;;7.49;100.00
65329;BME280;51941;52.210;5.158;2023-11-21T02:05:09;101171.44;;;7.52;100.00
65329;BME280;51941;52.210;5.158;2023-11-21T02:07:39;101164.13;;;7.54;100.00
65329;BME280;51941;52.210;5.158;2023-11-21T02:10:07;101173.47;;;7.56;100.00
65329;BME280;51941;52.210;5.158;2023-11-21T02:12:34;101173.88;;;7.60;100.00
65329;BME280;51941;52.210;5.158;2023-11-21T02:15:02;101177.91;;;7.62;100.00
65329;BME280;51941;52.210;5.158;2023-11-21T02:17:31;101176.50;;;7.66;100.00
65329;BME280;51941;52.210;5.158;2023-11-21T02:19:58;101176.09;;;7.70;100.00
65329;BME280;51941;52.210;5.158;2023-11-21T02:22:27;101179.34;;;7.72;100.00
65329;BME280;51941;52.210;5.158;2023-11-21T02:24:57;101184.41;;;7.73;100.00
65329;BME280;51941;52.210;5.158;2023-11-21T02:27:24;101176.69;;;7.72;100.00
65329;BME280;51941;52.210;5.158;2023-11-21T02:29:53;101183.81;;;7.78;100.00
65329;BME280;51941;52.210;5.158;2023-11-21T02:32:20;101187.03;;;7.80;100.00
65329;BME280;51941;52.210;5.158;2023-11-21T02:34:48;101184.19;;;7.81;100.00
65329;BME280;51941;52.210;5.158;2023-11-21T02:37:15;101189.25;;;7.83;100.00
65329;BME280;51941;52.210;5.158;2023-11-21T02:39:41;101185.41;;;7.85;100.00
65329;BME280;51941;52.210;5.158;2023-11-21T02:42:10;101187.63;;;7.88;100.00
65329;BME280;51941;52.210;5.158;2023-11-21T02:44:36;101189.06;;;7.91;100.00
65329;BME280;51941;52.210;5.158;2023-11-21T02:47:04;101195.94;;;7.92;100.00
65329;BME280;51941;52.210;5.158;2023-11-21T02:49:30;101193.13;;;7.93;100.00
65329;BME280;51941;52.210;5.158;2023-11-21T02:52:00;101182.16;;;7.90;100.00
65329;BME280;51941;52.210;5.158;2023-11-21T02:54:27;101187.66;;;7.95;100.00
65329;BME280;51941;52.210;5.158;2023-11-21T02:56:54;101182.38;;;7.95;100.00
65329;BME280;51941;52.210;5.158;2023-11-21T02:59:22;101185.22;;;7.93;100.00
65329;BME280;51941;52.210;5.158;2023-11-21T03:01:49;101185.41;;;7.92;100.00
65329;BME280;51941;52.210;5.158;2023-11-21T03:04:16;101187.22;;;7.91;100.00
65329;BME280;51941;52.210;5.158;2023-11-21T03:06:43;101186.22;;;7.92;100.00
65329;BME280;51941;52.210;5.158;2023-11-21T03:09:10;101183.78;;;7.91;100.00
65329;BME280;51941;52.210;5.158;2023-11-21T03:11:38;101179.72;;;7.88;100.00
65329;BME280;51941;52.210;5.158;2023-11-21T03:14:05;101185.59;;;7.90;100.00
65329;BME280;51941;52.210;5.158;2023-11-21T03:16:34;101189.06;;;7.91;100.00
65329;BME280;51941;52.210;5.158;2023-11-21T03:19:01;101192.69;;;7.90;100.00
65329;BME280;51941;52.210;5.158;2023-11-21T03:21:27;101192.31;;;7.86;100.00
65329;BME280;51941;52.210;5.158;2023-11-21T03:23:54;101198.59;;;7.92;100.00
65329;BME280;51941;52.210;5.158;2023-11-21T03:26:21;101199.19;;;7.94;100.00
65329;BME280;51941;52.210;5.158;2023-11-21T03:28:48;101195.34;;;7.96;100.00
65329;BME280;51941;52.210;5.158;2023-11-21T03:31:15;101199.59;;;7.97;100.00
65329;BME280;51941;52.210;5.158;2023-11-21T03:33:44;101194.13;;;7.99;100.00
65329;BME280;51941;52.210;5.158;2023-11-21T03:36:11;101201.81;;;8.00;100.00
65329;BME280;51941;52.210;5.158;2023-11-21T03:38:37;101207.28;;;7.99;100.00
65329;BME280;51941;52.210;5.158;2023-11-21T03:41:05;101201.81;;;8.00;100.00
65329;BME280;51941;52.210;5.158;2023-11-21T03:43:31;101206.50;;;8.05;100.00
65329;BME280;51941;52.210;5.158;2023-11-21T03:45:58;101207.91;;;8.07;100.00
65329;BME280;51941;52.210;5.158;2023-11-21T03:48:25;101209.53;;;8.09;100.00
65329;BME280;51941;52.210;5.158;2023-11-21T03:50:53;101209.53;;;8.09;100.00
65329;BME280;51941;52.210;5.158;2023-11-21T03:53:19;101206.50;;;8.05;100.00
65329;BME280;51941;52.210;5.158;2023-11-21T03:55:46;101217.22;;;8.10;100.00
65329;BME280;51941;52.210;5.158;2023-11-21T03:58:13;101224.94;;;8.12;100.00
65329;BME280;51941;52.210;5.158;2023-11-21T04:00:39;101224.94;;;8.12;100.00
65329;BME280;51941;52.210;5.158;2023-11-21T04:03:07;101225.75;;;8.12;100.00
65329;BME280;51941;52.210;5.158;2023-11-21T04:05:33;101234.47;;;8.13;100.00
65329;BME280;51941;52.210;5.158;2023-11-21T04:08:01;101236.91;;;8.14;100.00
65329;BME280;51941;52.210;5.158;2023-11-21T04:10:28;101243.78;;;8.15;100.00
65329;BME280;51941;52.210;5.158;2023-11-21T04:12:55;101247.66;;;8.19;100.00
65329;BME280;51941;52.210;5.158;2023-11-21T04:15:21;101246.84;;;8.19;100.00
65329;BME280;51941;52.210;5.158;2023-11-21T04:17:51;101251.91;;;8.20;100.00
65329;BME280;51941;52.210;5.158;2023-11-21T04:20:18;101248.06;;;8.23;100.00
65329;BME280;51941;52.210;5.158;2023-11-21T04:22:44;101250.25;;;8.26;100.00
65329;BME280;51941;52.210;5.158;2023-11-21T04:25:14;101256.16;;;8.28;100.00
65329;BME280;51941;52.210;5.158;2023-11-21T04:27:41;101267.72;;;8.27;100.00
65329;BME280;51941;52.210;5.158;2023-11-21T04:30:10;101274.00;;;8.26;100.00
65329;BME280;51941;52.210;5.158;2023-11-21T04:32:37;101275.63;;;8.27;100.00
65329;BME280;51941;52.210;5.158;2023-11-21T04:35:05;101282.94;;;8.31;100.00
65329;BME280;51941;52.210;5.158;2023-11-21T04:37:32;101287.78;;;8.34;100.00
65329;BME280;51941;52.210;5.158;2023-11-21T04:39:58;101286.56;;;8.37;100.00
65329;BME280;51941;52.210;5.158;2023-11-21T04:42:26;101284.56;;;8.39;100.00
65329;BME280;51941;52.210;5.158;2023-11-21T04:44:54;101279.06;;;8.40;100.00
65329;BME280;51941;52.210;5.158;2023-11-21T04:47:21;101277.25;;;8.41;100.00
65329;BME280;51941;52.210;5.158;2023-11-21T04:49:47;101285.16;;;8.41;100.00
65329;BME280;51941;52.210;5.158;2023-11-21T04:52:14;101279.88;;;8.41;100.00
65329;BME280;51941;52.210;5.158;2023-11-21T04:54:41;101282.28;;;8.42;100.00
65329;BME280;51941;52.210;5.158;2023-11-21T04:57:08;101277.03;;;8.42;100.00
65329;BME280;51941;52.210;5.158;2023-11-21T04:59:36;101285.75;;;8.43;100.00
65329;BME280;51941;52.210;5.158;2023-11-21T05:02:03;101292.66;;;8.44;100.00
65329;BME280;51941;52.210;5.158;2023-11-21T05:04:30;101289.81;;;8.46;100.00
65329;BME280;51941;52.210;5.158;2023-11-21T05:06:57;101304.00;;;8.44;100.00
65329;BME280;51941;52.210;5.158;2023-11-21T05:09:23;101296.50;;;8.48;100.00
65329;BME280;51941;52.210;5.158;2023-11-21T05:11:50;101299.72;;;8.50;100.00
65329;BME280;51941;52.210;5.158;2023-11-21T05:14:18;101303.81;;;8.53;100.00
65329;BME280;51941;52.210;5.158;2023-11-21T05:16:47;101296.69;;;8.53;100.00
65329;BME280;51941;52.210;5.158;2023-11-21T05:19:13;101303.59;;;8.54;100.00
65329;BME280;51941;52.210;5.158;2023-11-21T05:21:40;101310.69;;;8.54;100.00
65329;BME280;51941;52.210;5.158;2023-11-21T05:24:07;101310.50;;;8.55;100.00
65329;BME280;51941;52.210;5.158;2023-11-21T05:26:34;101314.75;;;8.56;100.00
65329;BME280;51941;52.210;5.158;2023-11-21T05:29:01;101316.97;;;8.59;100.00
65329;BME280;51941;52.210;5.158;2023-11-21T05:31:28;101329.34;;;8.59;100.00
65329;BME280;51941;52.210;5.158;2023-11-21T05:33:56;101326.31;;;8.62;100.00
65329;BME280;51941;52.210;5.158;2023-11-21T05:36:23;101336.66;;;8.63;100.00
65329;BME280;51941;52.210;5.158;2023-11-21T05:38:50;101321.84;;;8.62;100.00
65329;BME280;51941;52.210;5.158;2023-11-21T05:41:16;101337.28;;;8.65;100.00
65329;BME280;51941;52.210;5.158;2023-11-21T05:43:43;101325.31;;;8.63;100.00
65329;BME280;51941;52.210;5.158;2023-11-21T05:46:10;101349.22;;;8.68;100.00
65329;BME280;51941;52.210;5.158;2023-11-21T05:48:36;101346.41;;;8.69;100.00
65329;BME280;51941;52.210;5.158;2023-11-21T05:51:06;101337.28;;;8.65;100.00
65329;BME280;51941;52.210;5.158;2023-11-21T05:53:33;101347.22;;;8.70;100.00
65329;BME280;51941;52.210;5.158;2023-11-21T05:56:00;101355.31;;;8.68;100.00
65329;BME280;51941;52.210;5.158;2023-11-21T05:58:27;101365.50;;;8.71;100.00
65329;BME280;51941;52.210;5.158;2023-11-21T06:00:53;101363.25;;;8.68;100.00
65329;BME280;51941;52.210;5.158;2023-11-21T06:03:20;101362.66;;;8.73;100.00
65329;BME280;51941;52.210;5.158;2023-11-21T06:05:48;101375.66;;;8.74;100.00
65329;BME280;51941;52.210;5.158;2023-11-21T06:08:16;101366.91;;;8.74;100.00
65329;BME280;51941;52.210;5.158;2023-11-21T06:10:44;101366.69;;;8.69;100.00
65329;BME280;51941;52.210;5.158;2023-11-21T06:13:14;101380.09;;;8.74;100.00
65329;BME280;51941;52.210;5.158;2023-11-21T06:15:41;101378.47;;;8.73;100.00
65329;BME280;51941;52.210;5.158;2023-11-21T06:18:08;101386.00;;;8.76;100.00
65329;BME280;51941;52.210;5.158;2023-11-21T06:20:36;101387.63;;;8.84;100.00
65329;BME280;51941;52.210;5.158;2023-11-21T06:23:03;101386.38;;;8.86;100.00
65329;BME280;51941;52.210;5.158;2023-11-21T06:25:32;101404.25;;;8.91;100.00
65329;BME280;51941;52.210;5.158;2023-11-21T06:28:01;101389.84;;;8.93;100.00
65329;BME280;51941;52.210;5.158;2023-11-21T06:30:28;101396.50;;;8.96;100.00
65329;BME280;51941;52.210;5.158;2023-11-21T06:32:55;101395.72;;;9.02;100.00
65329;BME280;51941;52.210;5.158;2023-11-21T06:35:22;101398.94;;;9.04;100.00
65329;BME280;51941;52.210;5.158;2023-11-21T06:37:48;101395.69;;;9.08;100.00
65329;BME280;51941;52.210;5.158;2023-11-21T06:40:16;101399.13;;;9.09;100.00
65329;BME280;51941;52.210;5.158;2023-11-21T06:42:45;101405.63;;;9.13;100.00
65329;BME280;51941;52.210;5.158;2023-11-21T06:45:12;101415.97;;;9.14;100.00
65329;BME280;51941;52.210;5.158;2023-11-21T06:47:40;101415.38;;;9.12;100.00
65329;BME280;51941;52.210;5.158;2023-11-21T06:50:07;101417.41;;;9.17;100.00
65329;BME280;51941;52.210;5.158;2023-11-21T06:52:34;101416.22;;;9.20;100.00
65329;BME280;51941;52.210;5.158;2023-11-21T06:55:01;101422.06;;;9.22;100.00
65329;BME280;51941;52.210;5.158;2023-11-21T06:57:28;101427.78;;;9.18;100.00
65329;BME280;51941;52.210;5.158;2023-11-21T06:59:56;101438.13;;;9.27;100.00
65329;BME280;51941;52.210;5.158;2023-11-21T07:02:23;101432.41;;;9.30;100.00
65329;BME280;51941;52.210;5.158;2023-11-21T07:04:50;101436.69;;;9.31;100.00
65329;BME280;51941;52.210;5.158;2023-11-21T07:07:18;101441.38;;;9.35;100.00
65329;BME280;51941;52.210;5.158;2023-11-21T07:09:44;101440.16;;;9.38;100.00
65329;BME280;51941;52.210;5.158;2023-11-21T07:12:11;101442.59;;;9.33;100.00
65329;BME280;51941;52.210;5.158;2023-11-21T07:14:39;101440.34;;;9.36;100.00
65329;BME280;51941;52.210;5.158;2023-11-21T07:17:10;101446.81;;;9.40;100.00
65329;BME280;51941;52.210;5.158;2023-11-21T07:19:37;101448.44;;;9.41;100.00
65329;BME280;51941;52.210;5.158;2023-11-21T07:22:04;101437.69;;;9.43;100.00
65329;BME280;51941;52.210;5.158;2023-11-21T07:24:32;101455.53;;;9.47;100.00
65329;BME280;51941;52.210;5.158;2023-11-21T07:26:58;101447.63;;;9.47;100.00
65329;BME280;51941;52.210;5.158;2023-11-21T07:29:26;101459.41;;;9.51;100.00
65329;BME280;51941;52.210;5.158;2023-11-21T07:31:54;101469.56;;;9.54;100.00
65329;BME280;51941;52.210;5.158;2023-11-21T07:34:22;101469.34;;;9.56;100.00
65329;BME280;51941;52.210;5.158;2023-11-21T07:36:49;101478.50;;;9.60;100.00
65329;BME280;51941;52.210;5.158;2023-11-21T07:39:16;101475.84;;;9.60;100.00
65329;BME280;51941;52.210;5.158;2023-11-21T07:41:43;101480.13;;;9.61;100.00
65329;BME280;51941;52.210;5.158;2023-11-21T07:44:14;101486.81;;;9.57;100.00
65329;BME280;51941;52.210;5.158;2023-11-21T07:46:42;101494.53;;;9.59;100.00
65329;BME280;51941;52.210;5.158;2023-11-21T07:49:09;101501.88;;;9.56;100.00
65329;BME280;51941;52.210;5.158;2023-11-21T07:51:37;101494.16;;;9.55;100.00
65329;BME280;51941;52.210;5.158;2023-11-21T07:54:04;101502.69;;;9.64;100.00
65329;BME280;51941;52.210;5.158;2023-11-21T07:56:32;101509.38;;;9.60;100.00
65329;BME280;51941;52.210;5.158;2023-11-21T07:58:58;101516.91;;;9.63;100.00
65329;BME280;51941;52.210;5.158;2023-11-21T08:01:25;101519.78;;;9.54;100.00
65329;BME280;51941;52.210;5.158;2023-11-21T08:03:53;101517.31;;;9.60;100.00
65329;BME280;51941;52.210;5.158;2023-11-21T08:06:22;101530.31;;;9.68;100.00
65329;BME280;51941;52.210;5.158;2023-11-21T08:08:52;101536.63;;;9.67;100.00
65329;BME280;51941;52.210;5.158;2023-11-21T08:11:19;101534.16;;;9.65;100.00
65329;BME280;51941;52.210;5.158;2023-11-21T08:13:46;101544.94;;;9.70;100.00
65329;BME280;51941;52.210;5.158;2023-11-21T08:16:13;101548.63;;;9.63;100.00
65329;BME280;51941;52.210;5.158;2023-11-21T08:18:40;101549.25;;;9.58;100.00
65329;BME280;51941;52.210;5.158;2023-11-21T08:21:07;101549.63;;;9.68;100.00
65329;BME280;51941;52.210;5.158;2023-11-21T08:23:34;101552.69;;;9.72;100.00
65329;BME280;51941;52.210;5.158;2023-11-21T08:26:02;101563.22;;;9.78;100.00
65329;BME280;51941;52.210;5.158;2023-11-21T08:28:29;101566.50;;;9.80;100.00
65329;BME280;51941;52.210;5.158;2023-11-21T08:30:55;101578.47;;;9.89;100.00
65329;BME280;51941;52.210;5.158;2023-11-21T08:33:22;101574.00;;;9.90;100.00
65329;BME280;51941;52.210;5.158;2023-11-21T08:35:49;101583.75;;;9.89;100.00
65329;BME280;51941;52.210;5.158;2023-11-21T08:38:16;101599.19;;;9.99;100.00
65329;BME280;51941;52.210;5.158;2023-11-21T08:40:43;101592.25;;;10.05;100.00
65329;BME280;51941;52.210;5.158;2023-11-21T08:43:11;101592.44;;;10.03;100.00
65329;BME280;51941;52.210;5.158;2023-11-21T08:45:39;101595.09;;;10.03;100.00
65329;BME280;51941;52.210;5.158;2023-11-21T08:48:06;101603.00;;;10.10;100.00
65329;BME280;51941;52.210;5.158;2023-11-21T08:50:32;101606.25;;;10.12;100.00
65329;BME280;51941;52.210;5.158;2023-11-21T08:52:59;101611.56;;;10.05;100.00
65329;BME280;51941;52.210;5.158;2023-11-21T08:55:26;101617.47;;;10.07;100.00
65329;BME280;51941;52.210;5.158;2023-11-21T08:57:54;101617.69;;;10.06;100.00
65329;BME280;51941;52.210;5.158;2023-11-21T09:00:24;101639.66;;;10.00;100.00
65329;BME280;51941;52.210;5.158;2023-11-21T09:02:50;101646.38;;;9.96;100.00
65329;BME280;51941;52.210;5.158;2023-11-21T09:05:17;101638.06;;;9.99;100.00
65329;BME280;51941;52.210;5.158;2023-11-21T09:07:46;101633.97;;;9.96;100.00
65329;BME280;51941;52.210;5.158;2023-11-21T09:10:14;101644.34;;;9.98;100.00
65329;BME280;51941;52.210;5.158;2023-11-21T09:12:40;101647.38;;;10.01;100.00
65329;BME280;51941;52.210;5.158;2023-11-21T09:15:09;101656.97;;;9.96;100.00
65329;BME280;51941;52.210;5.158;2023-11-21T09:17:38;101656.16;;;9.88;100.00
65329;BME280;51941;52.210;5.158;2023-11-21T09:20:07;101645.97;;;9.92;100.00
65329;BME280;51941;52.210;5.158;2023-11-21T09:22:35;101658.19;;;9.86;100.00
65329;BME280;51941;52.210;5.158;2023-11-21T09:25:02;101662.06;;;9.77;100.00
65329;BME280;51941;52.210;5.158;2023-11-21T09:27:30;101676.72;;;9.86;100.00
65329;BME280;51941;52.210;5.158;2023-11-21T09:29:57;101673.88;;;9.75;100.00
65329;BME280;51941;52.210;5.158;2023-11-21T09:32:23;101677.94;;;9.84;100.00
65329;BME280;51941;52.210;5.158;2023-11-21T09:34:51;101694.63;;;9.78;100.00
65329;BME280;51941;52.210;5.158;2023-11-21T09:37:20;101687.69;;;9.83;100.00
65329;BME280;51941;52.210;5.158;2023-11-21T09:39:47;101696.25;;;9.79;100.00
65329;BME280;51941;52.210;5.158;2023-11-21T09:42:17;101702.13;;;9.74;100.00
65329;BME280;51941;52.210;5.158;2023-11-21T09:45:01;101704.38;;;9.77;100.00
65329;BME280;51941;52.210;5.158;2023-11-21T09:47:32;101705.00;;;9.73;100.00
65329;BME280;51941;52.210;5.158;2023-11-21T09:50:03;101696.66;;;9.76;100.00
65329;BME280;51941;52.210;5.158;2023-11-21T09:52:39;101721.47;;;9.81;100.00
65329;BME280;51941;52.210;5.158;2023-11-21T09:55:10;101722.88;;;9.77;100.00
65329;BME280;51941;52.210;5.158;2023-11-21T09:57:41;101714.34;;;9.95;100.00
65329;BME280;51941;52.210;5.158;2023-11-21T10:00:09;101721.66;;;9.93;100.00
65329;BME280;51941;52.210;5.158;2023-11-21T10:02:38;101721.06;;;9.98;100.00
65329;BME280;51941;52.210;5.158;2023-11-21T10:05:07;101739.97;;;10.01;100.00
65329;BME280;51941;52.210;5.158;2023-11-21T10:07:37;101729.16;;;10.09;100.00
65329;BME280;51941;52.210;5.158;2023-11-21T10:10:07;101735.91;;;10.05;100.00
65329;BME280;51941;52.210;5.158;2023-11-21T10:12:35;101741.78;;;10.14;100.00
65329;BME280;51941;52.210;5.158;2023-11-21T10:15:03;101747.69;;;10.16;100.00
65329;BME280;51941;52.210;5.158;2023-11-21T10:17:31;101750.13;;;10.11;100.00
65329;BME280;51941;52.210;5.158;2023-11-21T10:20:05;101762.13;;;10.13;100.00
65329;BME280;51941;52.210;5.158;2023-11-21T10:22:38;101763.56;;;10.09;100.00
65329;BME280;51941;52.210;5.158;2023-11-21T10:25:07;101764.19;;;9.98;100.00
65329;BME280;51941;52.210;5.158;2023-11-21T10:27:34;101770.28;;;10.05;100.00
65329;BME280;51941;52.210;5.158;2023-11-21T10:30:05;101784.09;;;10.01;100.00
65329;BME280;51941;52.210;5.158;2023-11-21T10:32:32;101791.03;;;10.02;100.00
65329;BME280;51941;52.210;5.158;2023-11-21T10:34:59;101795.50;;;9.94;100.00
65329;BME280;51941;52.210;5.158;2023-11-21T10:37:32;101806.69;;;10.03;100.00
65329;BME280;51941;52.210;5.158;2023-11-21T10:40:00;101800.78;;;10.01;100.00
65329;BME280;51941;52.210;5.158;2023-11-21T10:42:28;101801.19;;;9.91;100.00
65329;BME280;51941;52.210;5.158;2023-11-21T10:44:55;101809.75;;;10.00;100.00
65329;BME280;51941;52.210;5.158;2023-11-21T10:47:21;101805.28;;;9.87;100.00
65329;BME280;51941;52.210;5.158;2023-11-21T10:49:49;101807.09;;;9.87;100.00
65329;BME280;51941;52.210;5.158;2023-11-21T10:52:19;101802.22;;;9.84;100.00
65329;BME280;51941;52.210;5.158;2023-11-21T10:54:45;101816.66;;;9.81;100.00
65329;BME280;51941;52.210;5.158;2023-11-21T10:57:17;101813.00;;;9.89;100.00
65329;BME280;51941;52.210;5.158;2023-11-21T10:59:46;101816.47;;;9.89;100.00
65329;BME280;51941;52.210;5.158;2023-11-21T11:02:25;101825.22;;;9.97;100.00
65329;BME280;51941;52.210;5.158;2023-11-21T11:04:53;101826.03;;;9.90;100.00
65329;BME280;51941;52.210;5.158;2023-11-21T11:07:21;101830.09;;;10.00;100.00
65329;BME280;51941;52.210;5.158;2023-11-21T11:09:52;101845.97;;;10.00;100.00
65329;BME280;51941;52.210;5.158;2023-11-21T11:12:21;101848.81;;;9.98;100.00
65329;BME280;51941;52.210;5.158;2023-11-21T11:14:48;101847.59;;;10.01;100.00
65329;BME280;51941;52.210;5.158;2023-11-21T11:17:15;101837.81;;;10.01;100.00
65329;BME280;51941;52.210;5.158;2023-11-21T11:19:42;101847.63;;;10.07;100.00
65329;BME280;51941;52.210;5.158;2023-11-21T11:22:19;101836.81;;;10.09;100.00
65329;BME280;51941;52.210;5.158;2023-11-21T11:25:03;101844.75;;;10.09;100.00
65329;BME280;51941;52.210;5.158;2023-11-21T11:27:48;101839.44;;;10.09;100.00
65329;BME280;51941;52.210;5.158;2023-11-21T11:30:27;101841.09;;;10.03;100.00
65329;BME280;51941;52.210;5.158;2023-11-21T11:33:10;101847.81;;;9.99;100.00
65329;BME280;51941;52.210;5.158;2023-11-21T11:35:47;101852.69;;;10.02;100.00
65329;BME280;51941;52.210;5.158;2023-11-21T11:38:16;101854.31;;;9.97;100.00
65329;BME280;51941;52.210;5.158;2023-11-21T11:40:45;101857.78;;;10.04;100.00
65329;BME280;51941;52.210;5.158;2023-11-21T11:43:13;101855.72;;;9.92;100.00
65329;BME280;51941;52.210;5.158;2023-11-21T11:45:50;101861.63;;;10.01;100.00
65329;BME280;51941;52.210;5.158;2023-11-21T11:48:21;101870.78;;;9.92;100.00
65329;BME280;51941;52.210;5.158;2023-11-21T11:51:02;101856.13;;;9.89;100.00
65329;BME280;51941;52.210;5.158;2023-11-21T11:53:35;101872.59;;;9.85;100.00
65329;BME280;51941;52.210;5.158;2023-11-21T11:56:22;101882.41;;;9.98;100.00
65329;BME280;51941;52.210;5.158;2023-11-21T11:58:53;101870.38;;;10.02;100.00
65329;BME280;51941;52.210;5.158;2023-11-21T12:01:20;101871.19;;;10.02;100.00
65329;BME280;51941;52.210;5.158;2023-11-21T12:07:00;101872.00;;;10.09;100.00
65329;BME280;51941;52.210;5.158;2023-11-21T12:09:29;101876.50;;;10.02;100.00
65329;BME280;51941;52.210;5.158;2023-11-21T12:11:56;101874.66;;;10.03;100.00
65329;BME280;51941;52.210;5.158;2023-11-21T12:14:25;101883.03;;;10.06;100.00
65329;BME280;51941;52.210;5.158;2023-11-21T12:16:51;101876.72;;;10.07;100.00
65329;BME280;51941;52.210;5.158;2023-11-21T12:19:19;101878.94;;;10.10;100.00
65329;BME280;51941;52.210;5.158;2023-11-21T12:21:48;101882.19;;;10.06;100.00
65329;BME280;51941;52.210;5.158;2023-11-21T12:24:15;101886.69;;;10.05;100.00
65329;BME280;51941;52.210;5.158;2023-11-21T12:26:43;101888.31;;;10.06;100.00
65329;BME280;51941;52.210;5.158;2023-11-21T12:29:10;101897.47;;;10.10;100.00
65329;BME280;51941;52.210;5.158;2023-11-21T12:31:38;101904.38;;;10.18;100.00
65329;BME280;51941;52.210;5.158;2023-11-21T12:34:05;101906.44;;;10.16;100.00
65329;BME280;51941;52.210;5.158;2023-11-21T12:36:34;101906.63;;;10.14;100.00
65329;BME280;51941;52.210;5.158;2023-11-21T12:39:02;101902.94;;;10.09;100.00
65329;BME280;51941;52.210;5.158;2023-11-21T12:41:29;101914.97;;;10.11;100.00
65329;BME280;51941;52.210;5.158;2023-11-21T12:43:57;101921.47;;;10.02;100.00
65329;BME280;51941;52.210;5.158;2023-11-21T12:46:24;101921.06;;;10.05;100.00
65329;BME280;51941;52.210;5.158;2023-11-21T12:48:56;101921.25;;;9.97;100.00
65329;BME280;51941;52.210;5.158;2023-11-21T12:51:23;101926.53;;;9.97;100.00
65329;BME280;51941;52.210;5.158;2023-11-21T12:53:50;101926.53;;;9.97;100.00
65329;BME280;51941;52.210;5.158;2023-11-21T12:56:18;101937.75;;;9.99;100.00